Time;durP1;ratioP1;P1;durP2;ratioP2;P2;SDS_P1;SDS_P2;PMS_P1;PMS_P2;Temp;Humidity;BMP_temperature;BMP_pressure;BME280_temperature;BME280_humidity;BME280_pressure;Samples;Min_cycle;Max_cycle;Signal;HPM_P1;HPM_P2
2022/10/03 00:02:03;;;;;;;1.20;1.10;;;11.70;99.90;;;;;;5030174;28;20634;-80
2022/10/03 00:04:43;;;;;;;0.87;0.83;;;11.40;99.90;;;;;;5029347;28;20637;-81
2022/10/03 00:07:26;;;;;;;1.27;1.17;;;11.60;99.90;;;;;;5030541;28;20635;-80
2022/10/03 00:10:04;;;;;;;1.90;1.53;;;11.60;99.90;;;;;;5028560;28;20651;-81
2022/10/03 00:13:07;;;;;;;1.43;1.33;;;11.60;99.90;;;;;;5030230;28;20631;-80
2022/10/03 00:15:39;;;;;;;2.17;1.97;;;11.60;99.90;;;;;;5029006;28;20629;-81
2022/10/03 00:18:18;;;;;;;1.33;1.23;;;11.50;99.90;;;;;;5029745;28;20627;-81
2022/10/03 00:20:54;;;;;;;2.23;2.03;;;11.40;99.90;;;;;;5030518;28;20623;-80
2022/10/03 00:23:27;;;;;;;1.47;1.37;;;11.50;99.90;;;;;;5030202;28;20631;-80
2022/10/03 00:26:00;;;;;;;1.63;1.53;;;11.40;99.90;;;;;;5030083;28;20722;-80
2022/10/03 00:28:59;;;;;;;1.27;1.17;;;11.40;99.90;;;;;;5029254;28;20662;-80
2022/10/03 00:31:41;;;;;;;1.93;1.80;;;11.30;99.90;;;;;;5029737;28;21032;-80
2022/10/03 00:34:18;;;;;;;2.43;1.87;;;11.20;99.90;;;;;;5029081;28;21164;-80
2022/10/03 00:36:51;;;;;;;2.80;2.00;;;11.20;99.90;;;;;;5029854;28;20733;-80
2022/10/03 00:39:31;;;;;;;2.40;2.20;;;11.30;99.90;;;;;;5029838;28;20975;-80
2022/10/03 00:42:36;;;;;;;2.23;2.03;;;11.20;99.90;;;;;;5030134;28;20630;-80
2022/10/03 00:45:31;;;;;;;2.37;1.57;;;11.20;99.90;;;;;;5009785;28;20619;-80
2022/10/03 00:48:32;;;;;;;2.73;2.53;;;11.30;99.90;;;;;;5020550;28;20623;-80
2022/10/03 00:51:25;;;;;;;1.53;1.43;;;11.30;99.90;;;;;;5029654;28;20665;-81
2022/10/03 00:54:17;;;;;;;2.23;2.03;;;11.30;99.90;;;;;;5029596;28;20627;-80
2022/10/03 00:57:14;;;;;;;2.37;2.10;;;11.30;99.90;;;;;;5023606;28;20775;-80
2022/10/03 01:00:03;;;;;;;2.43;2.33;;;11.30;99.90;;;;;;5026123;28;20627;-80
2022/10/03 01:02:44;;;;;;;1.70;1.60;;;11.30;99.90;;;;;;5028912;28;20754;-81
2022/10/03 01:05:19;;;;;;;3.20;2.27;;;11.30;99.90;;;;;;5027547;28;20649;-80
2022/10/03 01:08:03;;;;;;;2.33;2.13;;;11.30;99.90;;;;;;5029532;28;20633;-80
2022/10/03 01:10:39;;;;;;;2.00;1.57;;;11.30;99.90;;;;;;5028278;28;20655;-80
2022/10/03 01:13:20;;;;;;;3.27;3.00;;;11.30;99.90;;;;;;5029272;28;20627;-80
2022/10/03 01:15:55;;;;;;;2.50;2.30;;;11.30;99.90;;;;;;5028513;28;20722;-80
2022/10/03 01:18:36;;;;;;;2.33;2.13;;;11.30;99.90;;;;;;5029384;28;20602;-80
2022/10/03 01:21:14;;;;;;;1.27;1.17;;;11.40;99.90;;;;;;5029469;28;20656;-80
2022/10/03 01:24:02;;;;;;;1.90;1.80;;;11.40;99.90;;;;;;5029514;28;20607;-80
2022/10/03 01:26:54;;;;;;;2.00;1.80;;;11.40;99.90;;;;;;5028954;28;20658;-80
2022/10/03 01:32:22;;;;;;;3.00;2.70;;;11.40;99.90;;;;;;5028888;28;20645;-80
2022/10/03 01:34:59;;;;;;;3.07;2.43;;;11.40;99.90;;;;;;5028814;28;20627;-80
2022/10/03 01:37:32;;;;;;;3.03;2.77;;;11.40;99.90;;;;;;5029931;28;21067;-80
2022/10/03 01:40:08;;;;;;;2.90;2.20;;;11.30;99.90;;;;;;5028870;28;20623;-80
2022/10/03 01:42:44;;;;;;;2.57;2.27;;;11.30;99.90;;;;;;5028958;28;20611;-80
2022/10/03 01:45:24;;;;;;;4.27;2.67;;;11.20;99.90;;;;;;5028383;28;20607;-81
2022/10/03 01:47:57;;;;;;;1.73;1.63;;;11.20;99.90;;;;;;5028397;28;20639;-80
2022/10/03 01:50:31;;;;;;;3.20;2.03;;;11.10;99.90;;;;;;5028649;28;20750;-80
2022/10/03 01:53:06;;;;;;;3.07;2.40;;;11.00;99.90;;;;;;5028621;28;20610;-80
2022/10/03 01:55:40;;;;;;;2.60;2.40;;;11.00;99.90;;;;;;5028052;28;20622;-80
2022/10/03 01:58:12;;;;;;;2.03;1.93;;;11.00;99.90;;;;;;5024535;28;20655;-81
2022/10/03 02:00:50;;;;;;;2.60;2.40;;;10.90;99.90;;;;;;5024917;28;20633;-81
2022/10/03 02:03:22;;;;;;;1.97;1.87;;;10.90;99.90;;;;;;5028545;28;20615;-80
2022/10/03 02:05:58;;;;;;;2.73;2.33;;;10.90;99.90;;;;;;5028111;28;20631;-80
2022/10/03 02:08:45;;;;;;;4.00;3.13;;;10.90;99.90;;;;;;5027788;28;20705;-80
2022/10/03 02:11:26;;;;;;;3.00;2.33;;;10.90;99.90;;;;;;5028204;28;20627;-80
2022/10/03 02:13:58;;;;;;;2.47;2.27;;;10.90;99.90;;;;;;5027995;28;21066;-80
2022/10/03 02:16:34;;;;;;;2.07;1.93;;;11.00;99.90;;;;;;5027852;28;20631;-81
2022/10/03 02:19:11;;;;;;;3.33;2.40;;;11.00;99.90;;;;;;5028575;28;20692;-81
2022/10/03 02:21:48;;;;;;;2.57;2.37;;;11.10;99.90;;;;;;5023681;28;20635;-80
2022/10/03 02:24:26;;;;;;;2.83;2.53;;;11.10;99.90;;;;;;5022438;28;21192;-80
2022/10/03 02:27:25;;;;;;;4.23;2.83;;;11.10;99.90;;;;;;5028660;28;21272;-80
2022/10/03 02:30:11;;;;;;;4.40;2.20;;;11.10;99.90;;;;;;5027923;28;21073;-80
2022/10/03 02:33:14;;;;;;;4.90;3.10;;;11.10;99.90;;;;;;5027690;28;21520;-81
2022/10/03 02:36:04;;;;;;;3.00;2.53;;;11.20;99.90;;;;;;5024979;28;20661;-81
2022/10/03 02:38:58;;;;;;;3.30;2.90;;;11.20;99.90;;;;;;5027569;28;21368;-80
2022/10/03 02:42:03;;;;;;;2.93;2.63;;;11.20;99.90;;;;;;5027680;28;20607;-80
2022/10/03 02:45:06;;;;;;;4.47;3.57;;;11.20;99.90;;;;;;5008380;28;21237;-81
2022/10/03 02:48:10;;;;;;;3.30;3.00;;;11.20;99.90;;;;;;5027889;28;20665;-80
2022/10/03 02:51:10;;;;;;;3.07;2.50;;;11.10;99.90;;;;;;5027567;28;21265;-80
2022/10/03 02:54:19;;;;;;;2.93;2.50;;;11.10;99.90;;;;;;5024898;28;20637;-80
2022/10/03 02:57:11;;;;;;;3.60;2.80;;;11.00;99.90;;;;;;5027274;28;20995;-80
2022/10/03 03:00:05;;;;;;;2.57;2.37;;;10.90;99.90;;;;;;5000072;28;20624;-80
2022/10/03 03:03:00;;;;;;;2.73;2.53;;;10.80;99.90;;;;;;5008426;28;20607;-80
2022/10/03 03:06:04;;;;;;;2.60;2.40;;;10.80;99.90;;;;;;5027300;28;20634;-80
2022/10/03 03:08:57;;;;;;;3.17;2.63;;;10.80;99.90;;;;;;5023086;28;20622;-80
2022/10/03 03:12:04;;;;;;;4.10;3.63;;;10.70;99.90;;;;;;5026883;28;20647;-80
2022/10/03 03:15:00;;;;;;;2.10;2.00;;;10.60;99.90;;;;;;5011803;28;20646;-80
2022/10/03 03:17:34;;;;;;;4.20;3.60;;;10.50;99.90;;;;;;5026591;28;20651;-80
2022/10/03 03:20:26;;;;;;;3.73;3.03;;;10.50;99.90;;;;;;5027870;28;20611;-80
2022/10/03 03:23:15;;;;;;;3.17;2.70;;;10.50;99.90;;;;;;5014279;28;20635;-80
2022/10/03 03:26:18;;;;;;;3.97;2.90;;;10.50;99.90;;;;;;5026762;28;20614;-80
2022/10/03 03:29:00;;;;;;;3.10;2.80;;;10.40;99.90;;;;;;5017382;28;20631;-78
2022/10/03 03:31:34;;;;;;;4.50;4.07;;;10.30;99.90;;;;;;5026777;28;20658;-78
2022/10/03 03:34:09;;;;;;;2.60;2.20;;;10.20;99.90;;;;;;5027057;28;20631;-79
2022/10/03 03:36:42;;;;;;;4.23;3.83;;;10.10;99.90;;;;;;5026733;28;20642;-78
2022/10/03 03:39:25;;;;;;;3.50;2.57;;;10.10;99.90;;;;;;5027126;28;20611;-78
2022/10/03 03:42:11;;;;;;;2.10;1.80;;;10.10;99.90;;;;;;5027024;28;21081;-78
2022/10/03 03:45:06;;;;;;;3.23;2.83;;;10.00;99.90;;;;;;5026498;28;20764;-78
2022/10/03 03:47:56;;;;;;;3.93;3.63;;;10.00;99.90;;;;;;5026337;28;20992;-78
2022/10/03 03:50:34;;;;;;;2.53;2.30;;;10.00;99.90;;;;;;5022383;28;20677;-78
2022/10/03 03:53:16;;;;;;;3.17;2.90;;;10.00;99.90;;;;;;5026562;28;20811;-78
2022/10/03 03:56:02;;;;;;;2.33;2.13;;;10.00;99.90;;;;;;5026757;28;20635;-78
2022/10/03 03:58:38;;;;;;;2.67;2.10;;;10.00;99.90;;;;;;5027415;28;20623;-78
2022/10/03 04:01:36;;;;;;;2.57;2.13;;;10.00;99.90;;;;;;5027007;28;20618;-78
2022/10/03 04:04:16;;;;;;;2.17;2.07;;;10.10;99.90;;;;;;5027289;28;20627;-78
2022/10/03 04:06:56;;;;;;;2.80;2.30;;;10.10;99.90;;;;;;5027240;28;20629;-78
2022/10/03 04:09:51;;;;;;;3.60;2.30;;;10.10;99.90;;;;;;5027004;28;20634;-79
2022/10/03 04:12:36;;;;;;;5.30;2.80;;;9.90;99.90;;;;;;5027453;28;20627;-78
2022/10/03 04:15:24;;;;;;;3.80;3.37;;;9.90;99.90;;;;;;5026872;28;20630;-78
2022/10/03 04:21:08;;;;;;;3.10;2.20;;;10.00;99.90;;;;;;5027527;28;21164;-78
2022/10/03 04:24:00;;;;;;;5.30;2.37;;;10.00;99.90;;;;;;5030746;28;20631;-78
2022/10/03 04:26:44;;;;;;;2.47;2.10;;;10.00;99.90;;;;;;5030695;28;20978;-78
2022/10/03 04:29:37;;;;;;;2.00;1.83;;;10.00;99.90;;;;;;5029008;28;20638;-80
2022/10/03 04:32:18;;;;;;;2.80;2.10;;;9.90;99.90;;;;;;5030881;28;20623;-80
2022/10/03 04:34:59;;;;;;;2.43;2.23;;;9.90;99.90;;;;;;5030033;28;20626;-80
2022/10/03 04:37:34;;;;;;;3.10;2.50;;;9.90;99.90;;;;;;5030752;28;20735;-80
2022/10/03 04:40:17;;;;;;;2.67;1.97;;;9.90;99.90;;;;;;5030663;28;20690;-80
2022/10/03 04:42:57;;;;;;;6.80;2.60;;;9.80;99.90;;;;;;5030436;28;20714;-80
2022/10/03 04:45:45;;;;;;;3.20;2.40;;;9.90;99.90;;;;;;5016605;28;20662;-80
2022/10/03 04:48:17;;;;;;;5.33;3.30;;;10.00;99.90;;;;;;5030281;28;21189;-80
2022/10/03 04:50:59;;;;;;;3.50;2.93;;;10.00;99.90;;;;;;5030266;28;20651;-80
2022/10/03 04:53:45;;;;;;;2.57;1.67;;;10.00;99.90;;;;;;5030537;28;20680;-80
2022/10/03 04:56:40;;;;;;;5.20;2.27;;;10.00;99.90;;;;;;5009983;28;20632;-80
2022/10/03 04:59:26;;;;;;;2.93;2.73;;;10.00;99.90;;;;;;5028379;28;20623;-80
2022/10/03 05:02:02;;;;;;;4.37;3.13;;;10.10;99.90;;;;;;5030540;28;20631;-80
2022/10/03 05:04:35;;;;;;;3.90;3.33;;;10.00;99.90;;;;;;5029066;28;20704;-80
2022/10/03 05:07:13;;;;;;;4.93;4.43;;;10.00;99.90;;;;;;5030254;28;21059;-80
2022/10/03 05:09:49;;;;;;;2.67;2.40;;;10.00;99.90;;;;;;5030050;28;20618;-80
2022/10/03 05:12:27;;;;;;;7.77;4.60;;;10.10;99.90;;;;;;5029790;28;20627;-80
2022/10/03 05:15:17;;;;;;;5.30;3.17;;;10.10;99.90;;;;;;5030185;28;20627;-80
2022/10/03 05:17:51;;;;;;;5.13;2.57;;;10.10;99.90;;;;;;5029955;28;20630;-80
2022/10/03 05:20:41;;;;;;;3.80;2.77;;;10.10;99.90;;;;;;5029805;28;20610;-80
2022/10/03 05:23:22;;;;;;;4.00;3.70;;;10.20;99.90;;;;;;5017377;28;20639;-80
2022/10/03 05:25:58;;;;;;;4.20;3.70;;;10.20;99.90;;;;;;5009908;28;20619;-80
2022/10/03 05:28:35;;;;;;;4.47;3.10;;;10.20;99.90;;;;;;5010217;28;20678;-81
2022/10/03 05:31:12;;;;;;;4.63;3.30;;;10.30;99.90;;;;;;5021631;28;20650;-80
2022/10/03 05:33:46;;;;;;;4.40;3.60;;;10.30;99.90;;;;;;5029012;28;20615;-80
2022/10/03 05:36:28;;;;;;;4.50;2.90;;;10.30;99.90;;;;;;5029978;28;20634;-80
2022/10/03 05:39:34;;;;;;;3.83;3.50;;;10.30;99.90;;;;;;5028478;28;20684;-80
2022/10/03 05:42:26;;;;;;;5.47;3.23;;;10.40;99.90;;;;;;5011450;28;20639;-80
2022/10/03 05:45:02;;;;;;;6.67;3.77;;;10.30;99.90;;;;;;5018144;28;21009;-80
2022/10/03 05:47:46;;;;;;;4.80;3.03;;;10.40;99.90;;;;;;5017948;28;20630;-80
2022/10/03 05:50:56;;;;;;;3.57;2.60;;;10.50;99.90;;;;;;5019516;28;20652;-80
2022/10/03 05:53:59;;;;;;;4.57;3.27;;;10.50;99.90;;;;;;5021189;28;20731;-80
2022/10/03 05:56:45;;;;;;;4.60;4.20;;;10.50;99.90;;;;;;5016287;28;20642;-80
2022/10/03 05:59:42;;;;;;;5.67;4.57;;;10.50;99.90;;;;;;5020372;28;20627;-80
2022/10/03 06:02:46;;;;;;;4.10;3.50;;;10.50;99.90;;;;;;5019410;28;20996;-80
2022/10/03 06:05:23;;;;;;;4.17;3.77;;;10.50;99.90;;;;;;5019079;28;20626;-80
2022/10/03 06:08:15;;;;;;;5.90;3.40;;;10.60;99.90;;;;;;5018051;28;21258;-80
2022/10/03 06:10:51;;;;;;;3.77;3.47;;;10.60;99.90;;;;;;5017927;28;21300;-80
2022/10/03 06:13:29;;;;;;;7.30;5.23;;;10.60;99.90;;;;;;5019030;28;20654;-80
2022/10/03 06:16:10;;;;;;;2.63;2.33;;;10.60;99.90;;;;;;5021429;28;21169;-80
2022/10/03 06:19:17;;;;;;;4.90;2.97;;;10.60;99.90;;;;;;5017052;28;20624;-80
2022/10/03 06:22:14;;;;;;;6.87;3.90;;;10.70;99.90;;;;;;5020299;28;20647;-80
2022/10/03 06:25:14;;;;;;;6.20;4.20;;;10.70;99.90;;;;;;5017644;28;20718;-80
2022/10/03 06:28:19;;;;;;;5.67;4.30;;;10.70;99.90;;;;;;5009267;28;20655;-80
2022/10/03 06:31:31;;;;;;;4.87;3.50;;;10.70;99.90;;;;;;4980737;28;20699;-80
2022/10/03 06:34:17;;;;;;;8.07;3.90;;;10.70;99.90;;;;;;4938393;29;20631;-80
2022/10/03 06:37:11;;;;;;;4.50;3.83;;;10.70;99.90;;;;;;5009792;28;20975;-80
2022/10/03 06:40:14;;;;;;;3.53;3.10;;;10.80;99.90;;;;;;5018027;28;20641;-78
2022/10/03 06:43:08;;;;;;;4.50;3.87;;;10.80;99.90;;;;;;5020110;28;20630;-78
2022/10/03 06:46:27;;;;;;;4.70;4.23;;;10.80;99.90;;;;;;5016187;28;20635;-81
2022/10/03 06:49:29;;;;;;;4.63;4.23;;;10.80;99.90;;;;;;4975752;28;20637;-78
2022/10/03 06:52:42;;;;;;;;;;;;;;;;;;;;;
2022/10/03 06:55:46;;;;;;;6.13;5.53;;;10.90;99.90;;;;;;5019378;28;20699;-81
2022/10/03 06:58:54;;;;;;;6.03;5.07;;;11.00;99.90;;;;;;5015768;28;20751;-81
2022/10/03 07:01:51;;;;;;;5.63;4.90;;;11.00;99.90;;;;;;5018234;28;20619;-81
2022/10/03 07:04:55;;;;;;;5.67;4.90;;;11.00;99.90;;;;;;5021895;28;20634;-79
2022/10/03 07:08:19;;;;;;;7.10;4.30;;;11.00;99.90;;;;;;5011223;28;20623;-78
2022/10/03 07:11:01;;;;;;;5.00;4.00;;;11.00;99.90;;;;;;5018232;28;20751;-79
2022/10/03 07:14:19;;;;;;;4.70;4.00;;;11.00;99.90;;;;;;5018803;28;20622;-81
2022/10/03 07:17:32;;;;;;;6.90;3.80;;;11.00;99.90;;;;;;5005163;28;20675;-78
2022/10/03 07:20:24;;;;;;;5.40;3.60;;;11.00;99.90;;;;;;4989584;28;20649;-78
2022/10/03 07:23:31;;;;;;;5.93;3.93;;;11.00;99.90;;;;;;5006557;28;21214;-78
2022/10/03 07:26:29;;;;;;;4.17;3.10;;;11.00;99.90;;;;;;5008018;28;20707;-79
2022/10/03 07:29:34;;;;;;;3.93;3.53;;;11.00;99.90;;;;;;5006899;28;20630;-78
2022/10/03 07:32:27;;;;;;;8.07;4.70;;;11.00;99.90;;;;;;5019060;28;20685;-78
2022/10/03 07:35:13;;;;;;;5.07;3.17;;;11.00;99.90;;;;;;5025335;28;21095;-78
2022/10/03 07:41:21;;;;;;;8.40;4.20;;;11.00;99.90;;;;;;5026941;28;20611;-79
2022/10/03 07:44:27;;;;;;;6.90;4.80;;;11.00;99.90;;;;;;5026380;28;20629;-78
2022/10/03 07:47:38;;;;;;;5.13;4.23;;;11.00;99.90;;;;;;5015070;28;20653;-78
2022/10/03 07:50:30;;;;;;;9.00;6.78;;;11.00;99.90;;;;;;5024542;28;20746;-78
2022/10/03 07:53:07;;;;;;;4.60;3.87;;;11.10;99.90;;;;;;5026428;28;20200;-78
2022/10/03 07:55:59;;;;;;;8.43;5.60;;;11.10;99.90;;;;;;5026812;28;20615;-78
2022/10/03 07:58:46;;;;;;;5.40;4.10;;;11.00;99.90;;;;;;5031072;28;20662;-78
2022/10/03 08:01:53;;;;;;;6.30;5.40;;;11.10;99.90;;;;;;5031974;28;20632;-77
2022/10/03 08:05:13;;;;;;;5.33;4.37;;;11.10;99.90;;;;;;5009679;28;20743;-78
2022/10/03 08:08:08;;;;;;;4.93;4.33;;;11.10;99.90;;;;;;5022009;28;20696;-78
2022/10/03 08:11:12;;;;;;;6.00;5.40;;;11.10;99.90;;;;;;5032525;28;20641;-78
2022/10/03 08:14:00;;;;;;;8.10;6.03;;;11.20;99.90;;;;;;5022041;28;20635;-79
2022/10/03 08:17:01;;;;;;;4.83;4.17;;;11.30;99.90;;;;;;5030974;28;20733;-78
2022/10/03 08:19:50;;;;;;;5.50;5.00;;;11.30;99.90;;;;;;5031223;28;20630;-78
2022/10/03 08:22:31;;;;;;;6.33;4.53;;;11.30;99.90;;;;;;5031431;28;20626;-78
2022/10/03 08:25:26;;;;;;;5.60;5.10;;;11.30;99.90;;;;;;5031095;28;20617;-78
2022/10/03 08:28:38;;;;;;;6.50;5.30;;;11.30;99.90;;;;;;5030887;28;20619;-78
2022/10/03 08:31:41;;;;;;;4.40;4.00;;;11.30;99.90;;;;;;4969531;28;20664;-79
2022/10/03 08:34:34;;;;;;;9.07;5.23;;;11.40;99.90;;;;;;5030249;28;20747;-78
2022/10/03 08:37:24;;;;;;;3.70;3.20;;;11.40;99.90;;;;;;5022682;28;20681;-78
2022/10/03 08:40:21;;;;;;;7.47;5.80;;;11.40;99.90;;;;;;5023264;28;20622;-78
2022/10/03 08:43:22;;;;;;;4.87;3.60;;;11.30;99.90;;;;;;5021776;28;20628;-78
2022/10/03 08:46:00;;;;;;;5.87;5.27;;;11.40;99.90;;;;;;5021127;28;20727;-79
2022/10/03 08:48:51;;;;;;;7.67;5.27;;;11.50;99.90;;;;;;5019321;28;20625;-79
2022/10/03 08:51:55;;;;;;;5.47;3.83;;;11.50;99.90;;;;;;5021326;28;20651;-78
2022/10/03 08:55:11;;;;;;;9.87;3.87;;;11.50;99.90;;;;;;5021816;28;21257;-78
2022/10/03 08:58:12;;;;;;;6.70;4.30;;;11.60;99.90;;;;;;5010844;28;20635;-77
2022/10/03 09:01:00;;;;;;;5.17;4.37;;;11.60;99.90;;;;;;5010628;28;20638;-78
2022/10/03 09:04:02;;;;;;;3.83;3.53;;;11.60;99.90;;;;;;5017598;28;20615;-78
2022/10/03 09:07:05;;;;;;;5.57;4.27;;;11.60;99.90;;;;;;5010504;28;20647;-77
2022/10/03 09:10:16;;;;;;;4.27;3.60;;;11.60;99.90;;;;;;4998911;28;20639;-77
2022/10/03 09:13:28;;;;;;;6.60;4.80;;;11.60;99.90;;;;;;5010120;28;20666;-78
2022/10/03 09:16:43;;;;;;;6.33;4.40;;;11.70;99.90;;;;;;4988734;28;20623;-78
2022/10/03 09:19:40;;;;;;;6.70;3.90;;;11.80;99.90;;;;;;5030339;28;20622;-77
2022/10/03 09:22:36;;;;;;;3.33;2.87;;;11.80;99.90;;;;;;5029809;28;20689;-78
2022/10/03 09:25:33;;;;;;;7.10;3.63;;;11.70;99.90;;;;;;5029618;28;20630;-78
2022/10/03 09:28:41;;;;;;;5.20;4.03;;;11.80;99.90;;;;;;5029347;28;20649;-78
2022/10/03 09:31:25;;;;;;;3.47;3.17;;;11.80;99.90;;;;;;5027799;28;20666;-78
2022/10/03 09:34:07;;;;;;;5.90;4.40;;;11.80;99.90;;;;;;5029702;28;21228;-78
2022/10/03 09:37:31;;;;;;;4.70;4.23;;;11.90;99.90;;;;;;5029597;28;20726;-77
2022/10/03 09:40:23;;;;;;;5.93;4.50;;;11.80;99.90;;;;;;4994013;28;20733;-78
2022/10/03 09:43:38;;;;;;;3.83;3.53;;;11.90;99.90;;;;;;5029521;28;21229;-79
2022/10/03 09:46:38;;;;;;;4.60;3.43;;;11.80;99.90;;;;;;4948276;29;20692;-78
2022/10/03 09:49:39;;;;;;;3.47;2.70;;;11.80;99.90;;;;;;5028896;28;20638;-77
2022/10/03 09:52:28;;;;;;;4.43;4.03;;;11.80;99.90;;;;;;5030037;28;20709;-77
2022/10/03 09:55:16;;;;;;;12.13;3.87;;;11.80;99.90;;;;;;5009118;28;20628;-78
2022/10/03 09:58:20;;;;;;;4.83;2.67;;;11.90;99.90;;;;;;5010144;28;20608;-78
2022/10/03 10:01:16;;;;;;;5.57;4.03;;;12.00;99.90;;;;;;5024031;28;20654;-77
2022/10/03 10:04:15;;;;;;;4.53;3.87;;;12.10;99.90;;;;;;5018414;28;20636;-78
2022/10/03 10:07:14;;;;;;;3.03;2.70;;;12.10;99.90;;;;;;5009963;28;20627;-78
2022/10/03 10:10:05;;;;;;;7.20;4.93;;;12.10;99.90;;;;;;5009540;28;20636;-78
2022/10/03 10:12:55;;;;;;;5.33;3.73;;;12.10;99.90;;;;;;5009691;28;20659;-78
2022/10/03 10:15:56;;;;;;;6.20;3.97;;;12.30;99.90;;;;;;5018552;28;20984;-78
2022/10/03 10:18:55;;;;;;;3.80;3.50;;;12.40;99.90;;;;;;5028688;28;20627;-78
2022/10/03 10:21:38;;;;;;;5.03;4.63;;;12.40;99.90;;;;;;5028782;28;20722;-77
2022/10/03 10:24:35;;;;;;;7.57;3.63;;;12.40;99.90;;;;;;5008699;28;20638;-78
2022/10/03 10:27:36;;;;;;;6.90;3.20;;;12.50;99.90;;;;;;4997509;28;21205;-77
2022/10/03 10:30:23;;;;;;;4.10;3.50;;;12.40;99.90;;;;;;5021257;28;20633;-77
2022/10/03 10:33:23;;;;;;;8.10;4.20;;;12.30;99.90;;;;;;5025819;28;20667;-77
2022/10/03 10:36:16;;;;;;;6.60;4.03;;;12.40;99.90;;;;;;5028310;28;20637;-78
2022/10/03 10:39:39;;;;;;;2.30;2.10;;;12.30;99.90;;;;;;5028777;28;20623;-77
2022/10/03 10:42:48;;;;;;;9.00;5.27;;;12.30;99.90;;;;;;4967271;28;20769;-77
2022/10/03 10:45:55;;;;;;;2.50;2.30;;;12.30;99.90;;;;;;5008048;28;20620;-79
2022/10/03 10:49:06;;;;;;;3.40;2.40;;;12.40;99.90;;;;;;5010977;28;20641;-78
2022/10/03 10:52:12;;;;;;;3.30;3.00;;;12.50;99.90;;;;;;5028781;28;20655;-78
2022/10/03 10:55:33;;;;;;;4.17;3.60;;;12.50;99.90;;;;;;5008068;28;20628;-78
2022/10/03 10:58:51;;;;;;;2.87;2.53;;;12.40;99.90;;;;;;4999985;28;21065;-78
2022/10/03 11:02:15;;;;;;;3.83;2.93;;;12.40;99.90;;;;;;5005689;28;21247;-77
2022/10/03 11:05:31;;;;;;;3.50;2.93;;;12.40;99.90;;;;;;5026241;28;20726;-77
2022/10/03 11:08:37;;;;;;;4.63;2.90;;;12.40;99.90;;;;;;5028594;28;20997;-77
2022/10/03 11:11:20;;;;;;;4.03;3.63;;;12.40;99.90;;;;;;5028481;28;20629;-77
2022/10/03 11:14:16;;;;;;;2.93;2.60;;;12.50;99.90;;;;;;5028388;28;20726;-77
2022/10/03 11:17:19;;;;;;;3.53;3.03;;;12.50;99.90;;;;;;5028512;28;20629;-77
2022/10/03 11:20:24;;;;;;;2.67;2.40;;;12.60;99.90;;;;;;5028369;28;21079;-78
2022/10/03 11:23:40;;;;;;;2.90;2.70;;;12.60;99.90;;;;;;5028436;28;21265;-78
2022/10/03 11:27:05;;;;;;;3.10;2.80;;;12.80;99.90;;;;;;5027305;28;20641;-78
2022/10/03 11:30:23;;;;;;;4.87;2.57;;;13.00;99.90;;;;;;5029150;28;20633;-78
2022/10/03 11:33:29;;;;;;;5.00;2.77;;;13.10;99.90;;;;;;5018287;28;20667;-78
2022/10/03 11:36:33;;;;;;;2.47;2.27;;;13.20;99.90;;;;;;5031664;28;20749;-78
2022/10/03 11:39:04;;;;;;;3.63;2.67;;;13.20;99.90;;;;;;5031330;28;20725;-79
2022/10/03 11:41:46;;;;;;;2.40;2.30;;;13.20;99.90;;;;;;5011944;28;20628;-78
2022/10/03 11:44:19;;;;;;;4.80;3.47;;;13.20;99.90;;;;;;5015259;28;20622;-77
2022/10/03 11:47:11;;;;;;;3.43;3.13;;;13.20;99.90;;;;;;5032216;28;20623;-77
2022/10/03 11:50:17;;;;;;;2.90;2.13;;;13.30;99.90;;;;;;5031841;28;20714;-78
2022/10/03 11:52:57;;;;;;;2.70;2.10;;;13.40;99.90;;;;;;5026082;28;20746;-78
2022/10/03 11:55:32;;;;;;;3.63;2.13;;;13.50;99.90;;;;;;5031212;28;20631;-78
2022/10/03 11:58:31;;;;;;;4.47;3.20;;;13.60;99.90;;;;;;5031527;28;20725;-79
2022/10/03 12:01:17;;;;;;;2.17;1.97;;;13.60;99.90;;;;;;5031960;28;20737;-78
2022/10/03 12:03:51;;;;;;;2.60;2.30;;;13.60;99.90;;;;;;5031719;28;20654;-78
2022/10/03 12:09:27;;;;;;;2.23;2.03;;;13.70;99.90;;;;;;5030554;28;20623;-77
2022/10/03 12:12:01;;;;;;;1.60;1.50;;;13.70;99.90;;;;;;5031727;28;20658;-77
2022/10/03 12:14:32;;;;;;;1.43;1.33;;;13.70;99.90;;;;;;5031122;28;20630;-78
2022/10/03 12:17:08;;;;;;;4.83;1.70;;;13.70;99.90;;;;;;5030946;28;20635;-77
2022/10/03 12:19:42;;;;;;;2.63;2.43;;;13.80;99.90;;;;;;5031669;28;20696;-78
2022/10/03 12:22:35;;;;;;;1.43;1.37;;;13.70;99.90;;;;;;5031135;28;21187;-78
2022/10/03 12:25:17;;;;;;;1.87;1.77;;;13.80;99.90;;;;;;5030775;28;20721;-78
2022/10/03 12:27:58;;;;;;;2.20;1.60;;;13.90;99.90;;;;;;5031184;28;20623;-79
2022/10/03 12:30:27;;;;;;;1.83;1.73;;;13.80;99.90;;;;;;5031182;28;20721;-78
2022/10/03 12:33:12;;;;;;;1.70;1.60;;;13.90;99.90;;;;;;5031256;28;20647;-78
2022/10/03 12:35:44;;;;;;;3.43;1.10;;;13.90;99.90;;;;;;5029869;28;20646;-78
2022/10/03 12:38:32;;;;;;;2.10;1.90;;;13.90;99.90;;;;;;5031379;28;20627;-77
2022/10/03 12:41:15;;;;;;;2.40;1.63;;;14.00;99.90;;;;;;5031420;28;20626;-78
2022/10/03 12:43:56;;;;;;;2.10;1.83;;;14.20;99.90;;;;;;5030514;28;20630;-78
2022/10/03 12:46:33;;;;;;;2.13;1.60;;;14.20;99.90;;;;;;5027499;28;20598;-79
2022/10/03 12:49:05;;;;;;;2.70;2.07;;;14.30;99.90;;;;;;5020484;28;20639;-79
2022/10/03 12:51:52;;;;;;;1.97;1.47;;;14.40;99.90;;;;;;5030456;28;21192;-81
2022/10/03 12:54:39;;;;;;;1.77;1.67;;;14.40;99.90;;;;;;5030033;28;20637;-82
2022/10/03 13:01:06;;;;;;;2.30;1.77;;;14.40;99.90;;;;;;5020566;28;20729;-82
2022/10/03 13:03:50;;;;;;;2.43;1.70;;;14.40;99.90;;;;;;5021846;28;20616;-80
2022/10/03 13:06:37;;;;;;;1.57;1.40;;;14.50;99.90;;;;;;5019661;28;20635;-81
2022/10/03 13:09:19;;;;;;;1.40;1.30;;;14.40;99.90;;;;;;5020165;28;20627;-81
2022/10/03 13:12:04;;;;;;;1.63;1.23;;;14.50;99.90;;;;;;5020358;28;20619;-81
2022/10/03 13:15:02;;;;;;;2.50;2.30;;;14.40;99.90;;;;;;5028013;28;20615;-81
2022/10/03 13:17:36;;;;;;;1.97;1.50;;;14.40;99.90;;;;;;5029741;28;20637;-78
2022/10/03 13:20:10;;;;;;;2.53;1.80;;;14.40;99.90;;;;;;5030080;28;20627;-78
2022/10/03 13:22:45;;;;;;;3.03;1.60;;;14.50;99.90;;;;;;5029861;28;20637;-77
2022/10/03 13:25:20;;;;;;;2.07;1.87;;;14.50;99.90;;;;;;5029189;28;21160;-78
2022/10/03 13:27:51;;;;;;;1.90;1.80;;;14.70;99.60;;;;;;5030255;28;20618;-79
2022/10/03 13:30:24;;;;;;;5.50;2.73;;;14.60;99.90;;;;;;5030168;28;20960;-78
2022/10/03 13:32:57;;;;;;;3.83;2.40;;;14.60;99.80;;;;;;5029990;28;20670;-77
2022/10/03 13:38:38;;;;;;;2.23;1.47;;;14.60;99.10;;;;;;5030284;28;20623;-79
2022/10/03 13:41:15;;;;;;;1.07;0.97;;;14.70;99.50;;;;;;5026874;28;20642;-78
2022/10/03 13:43:47;;;;;;;1.53;1.20;;;14.60;97.80;;;;;;5028077;28;21501;-80
2022/10/03 13:46:19;;;;;;;2.13;1.93;;;14.60;99.00;;;;;;5020670;28;20717;-79
2022/10/03 13:48:55;;;;;;;1.30;1.20;;;14.60;98.60;;;;;;5019981;28;20664;-78
2022/10/03 13:51:33;;;;;;;2.17;1.97;;;14.50;99.90;;;;;;5021796;28;20656;-78
2022/10/03 13:54:06;;;;;;;1.07;0.97;;;14.50;99.80;;;;;;5019976;28;20976;-78
2022/10/03 13:56:42;;;;;;;2.60;1.70;;;14.50;99.80;;;;;;5018923;28;20631;-78
2022/10/03 13:59:24;;;;;;;2.33;2.13;;;14.40;99.50;;;;;;5018943;28;21185;-78
2022/10/03 14:02:00;;;;;;;2.57;1.33;;;14.30;99.70;;;;;;5018547;28;21189;-77
2022/10/03 14:05:00;;;;;;;3.17;2.03;;;14.30;99.90;;;;;;5025054;28;21203;-77
2022/10/03 14:07:38;;;;;;;1.73;1.63;;;14.30;99.90;;;;;;5029265;28;20717;-77
2022/10/03 14:10:25;;;;;;;1.27;1.17;;;14.40;99.90;;;;;;5028888;28;20633;-77
2022/10/03 14:13:09;;;;;;;1.17;1.07;;;14.30;99.90;;;;;;5029431;28;20792;-77
2022/10/03 14:15:46;;;;;;;2.43;1.40;;;14.20;99.40;;;;;;5028122;28;21084;-78
2022/10/03 14:18:32;;;;;;;2.10;1.90;;;14.20;99.60;;;;;;5029190;28;21181;-77
2022/10/03 14:21:31;;;;;;;1.40;1.07;;;14.20;98.70;;;;;;5029448;28;20730;-77
2022/10/03 14:24:05;;;;;;;1.53;1.43;;;14.20;99.50;;;;;;5009442;28;21244;-78
2022/10/03 14:26:38;;;;;;;1.73;1.33;;;14.30;99.90;;;;;;5009611;28;21149;-79
2022/10/03 14:29:14;;;;;;;4.00;1.43;;;14.30;99.90;;;;;;5022230;28;20634;-79
2022/10/03 14:31:49;;;;;;;2.10;1.10;;;14.20;99.90;;;;;;5029151;28;20825;-77
2022/10/03 14:34:32;;;;;;;1.70;1.60;;;14.30;99.90;;;;;;5028284;28;21332;-77
2022/10/03 14:37:10;;;;;;;1.93;1.00;;;14.30;99.90;;;;;;5029060;28;20633;-77
2022/10/03 14:39:43;;;;;;;2.43;1.23;;;14.30;99.90;;;;;;5026408;28;20654;-76
2022/10/03 14:42:35;;;;;;;2.13;1.97;;;14.30;99.90;;;;;;5027705;28;21165;-79
2022/10/03 14:45:07;;;;;;;1.43;1.10;;;14.30;99.90;;;;;;5028692;28;20611;-78
2022/10/03 14:47:36;;;;;;;3.10;1.40;;;14.30;99.90;;;;;;5028229;28;21121;-78
2022/10/03 14:50:06;;;;;;;1.53;1.17;;;14.30;99.90;;;;;;5028075;28;20627;-78
2022/10/03 14:52:39;;;;;;;1.13;1.03;;;14.30;99.90;;;;;;5028896;28;20627;-78
2022/10/03 14:55:13;;;;;;;2.10;1.83;;;14.40;99.90;;;;;;5027806;28;20627;-79
2022/10/03 14:57:45;;;;;;;2.17;1.77;;;14.30;99.90;;;;;;5028376;28;21116;-78
2022/10/03 15:00:32;;;;;;;1.70;1.37;;;14.30;99.90;;;;;;5016165;28;20730;-78